createdAt,value
2023-05-12T00:01:21.699Z,9.40
2023-05-12T00:03:49.012Z,9.30
2023-05-12T00:06:16.436Z,9.20
2023-05-12T00:08:43.372Z,9.20
2023-05-12T00:11:10.450Z,9.00
2023-05-12T00:13:37.815Z,9.00
2023-05-12T00:16:05.281Z,8.90
2023-05-12T00:18:32.304Z,8.80
2023-05-12T00:20:59.330Z,8.80
2023-05-12T00:23:26.264Z,8.70
2023-05-12T00:25:53.223Z,8.60
2023-05-12T00:28:20.484Z,8.50
2023-05-12T00:30:47.376Z,8.50
2023-05-12T00:33:14.440Z,8.50
2023-05-12T00:35:41.391Z,8.40
2023-05-12T00:38:08.337Z,8.40
2023-05-12T00:40:35.312Z,8.40
2023-05-12T00:43:02.218Z,8.30
2023-05-12T00:45:29.894Z,8.30
2023-05-12T00:47:57.500Z,8.30
2023-05-12T00:50:24.788Z,8.30
2023-05-12T00:52:52.709Z,8.20
2023-05-12T00:55:19.806Z,8.20
2023-05-12T00:57:46.876Z,8.10
2023-05-12T01:00:14.191Z,8.10
2023-05-12T01:02:41.419Z,8.00
2023-05-12T01:05:10.052Z,7.90
2023-05-12T01:07:38.738Z,8.00
2023-05-12T01:10:17.321Z,7.90
2023-05-12T01:12:45.248Z,7.90
2023-05-12T01:15:12.987Z,7.80
2023-05-12T01:17:44.497Z,7.70
2023-05-12T01:20:14.524Z,7.60
2023-05-12T01:22:41.982Z,7.60
2023-05-12T01:25:12.060Z,7.50
2023-05-12T01:27:41.298Z,7.50
2023-05-12T01:30:09.641Z,7.50
2023-05-12T01:32:38.556Z,7.50
2023-05-12T01:35:06.049Z,7.40
2023-05-12T01:37:33.217Z,7.30
2023-05-12T01:40:00.293Z,7.20
2023-05-12T01:42:27.472Z,7.30
2023-05-12T01:44:54.448Z,7.30
2023-05-12T01:47:21.775Z,7.30
2023-05-12T01:49:48.964Z,7.30
2023-05-12T01:52:15.856Z,7.30
2023-05-12T01:54:42.728Z,7.20
2023-05-12T01:57:09.637Z,7.20
2023-05-12T01:59:37.015Z,7.20
2023-05-12T02:02:04.133Z,7.20
2023-05-12T02:04:31.141Z,7.20
2023-05-12T02:06:58.044Z,7.20
2023-05-12T02:09:25.010Z,7.20
2023-05-12T02:11:52.102Z,7.10
2023-05-12T02:14:19.043Z,7.20
2023-05-12T02:16:47.400Z,7.20
2023-05-12T02:19:14.323Z,7.10
2023-05-12T02:21:41.391Z,7.20
2023-05-12T02:24:08.435Z,7.20
2023-05-12T02:26:35.408Z,7.20
2023-05-12T02:29:02.503Z,7.20
2023-05-12T02:31:29.493Z,7.20
2023-05-12T02:33:57.075Z,7.10
2023-05-12T02:36:24.084Z,7.00
2023-05-12T02:38:50.957Z,7.00
2023-05-12T02:41:17.839Z,7.00
2023-05-12T02:43:44.747Z,7.00
2023-05-12T02:46:11.755Z,7.00
2023-05-12T02:48:38.699Z,7.10
2023-05-12T02:51:05.822Z,7.00
2023-05-12T02:53:33.000Z,7.10
2023-05-12T02:55:59.974Z,7.00
2023-05-12T02:58:27.282Z,7.10
2023-05-12T03:01:03.339Z,7.00
2023-05-12T03:03:34.111Z,7.00
2023-05-12T03:06:01.190Z,7.10
2023-05-12T03:08:28.100Z,7.10
2023-05-12T03:10:55.149Z,7.10
2023-05-12T03:13:22.326Z,7.10
2023-05-12T03:15:49.348Z,7.10
2023-05-12T03:18:16.245Z,7.20
2023-05-12T03:20:43.520Z,7.30
2023-05-12T03:23:10.538Z,7.30
2023-05-12T03:25:37.583Z,7.30
2023-05-12T03:28:05.580Z,7.30
2023-05-12T03:30:33.302Z,7.40
2023-05-12T03:33:00.426Z,7.40
2023-05-12T03:35:27.584Z,7.40
2023-05-12T03:37:54.471Z,7.50
2023-05-12T03:40:21.705Z,7.50
2023-05-12T03:42:48.836Z,7.50
2023-05-12T03:45:15.733Z,7.70
2023-05-12T03:47:43.172Z,7.70
2023-05-12T03:50:10.486Z,7.70
2023-05-12T03:52:38.613Z,7.80
2023-05-12T03:55:09.258Z,7.90
2023-05-12T03:57:36.728Z,8.00
2023-05-12T04:00:05.582Z,8.10
2023-05-12T04:02:32.885Z,8.20
2023-05-12T04:04:59.892Z,8.30
2023-05-12T04:07:27.192Z,8.40
2023-05-12T04:09:54.119Z,8.50
2023-05-12T04:12:21.075Z,8.60
2023-05-12T04:14:48.389Z,8.70
2023-05-12T04:17:15.375Z,8.70
2023-05-12T04:19:42.826Z,8.80
2023-05-12T04:22:09.817Z,8.90
2023-05-12T04:24:38.564Z,9.00
2023-05-12T04:27:07.158Z,9.10
2023-05-12T04:29:34.153Z,9.20
2023-05-12T04:32:01.191Z,9.30
2023-05-12T04:34:28.197Z,9.30
2023-05-12T04:36:55.182Z,9.40
2023-05-12T04:39:22.211Z,9.50
2023-05-12T04:41:49.177Z,9.70
2023-05-12T04:44:16.385Z,9.70
2023-05-12T04:46:43.865Z,9.80
2023-05-12T04:49:11.399Z,9.90
2023-05-12T04:51:43.001Z,10.00
2023-05-12T04:54:12.941Z,10.10
2023-05-12T04:56:39.879Z,10.20
2023-05-12T04:59:07.108Z,10.30
2023-05-12T05:01:34.158Z,10.40
2023-05-12T05:04:01.361Z,10.50
2023-05-12T05:06:28.416Z,10.60
2023-05-12T05:08:55.987Z,10.70
2023-05-12T05:11:23.931Z,10.80
2023-05-12T05:13:50.856Z,10.90
2023-05-12T05:16:17.962Z,10.90
2023-05-12T05:18:47.916Z,11.00
2023-05-12T05:21:15.371Z,11.10
2023-05-12T05:23:42.571Z,11.20
2023-05-12T05:26:09.641Z,11.20
2023-05-12T05:28:37.383Z,11.30
2023-05-12T05:31:04.909Z,11.40
2023-05-12T05:33:32.373Z,11.40
2023-05-12T05:36:00.055Z,11.50
2023-05-12T05:38:26.959Z,11.60
2023-05-12T05:40:54.720Z,11.70
2023-05-12T05:43:21.940Z,11.80
2023-05-12T05:45:50.023Z,11.90
2023-05-12T05:48:18.025Z,12.00
2023-05-12T05:50:44.999Z,12.10
2023-05-12T05:53:12.048Z,12.20
2023-05-12T05:55:38.939Z,12.40
2023-05-12T05:58:05.890Z,12.50
2023-05-12T06:00:32.871Z,12.70
2023-05-12T06:03:00.105Z,12.90
2023-05-12T06:05:27.186Z,13.10
2023-05-12T06:07:54.319Z,13.30
2023-05-12T06:10:21.901Z,13.40
2023-05-12T06:12:50.310Z,13.50
2023-05-12T06:15:17.810Z,13.60
2023-05-12T06:17:45.373Z,13.70
2023-05-12T06:20:13.508Z,13.90
2023-05-12T06:22:42.447Z,14.00
2023-05-12T06:25:09.619Z,14.20
2023-05-12T06:27:36.795Z,14.30
2023-05-12T06:30:04.433Z,14.40
2023-05-12T06:32:31.483Z,14.50
2023-05-12T06:34:58.942Z,14.60
2023-05-12T06:37:25.913Z,14.60
2023-05-12T06:39:52.850Z,14.80
2023-05-12T06:42:19.749Z,14.90
2023-05-12T06:44:46.782Z,15.00
2023-05-12T06:47:13.737Z,15.20
2023-05-12T06:49:40.788Z,15.20
2023-05-12T06:52:07.935Z,15.40
2023-05-12T06:54:34.928Z,15.60
2023-05-12T06:57:01.872Z,15.70
2023-05-12T06:59:28.845Z,15.90
2023-05-12T07:01:55.855Z,16.00
2023-05-12T07:04:23.656Z,16.20
2023-05-12T07:06:52.193Z,16.40
2023-05-12T07:09:19.195Z,16.60
2023-05-12T07:11:46.318Z,16.70
2023-05-12T07:14:13.455Z,16.80
2023-05-12T07:16:40.358Z,16.70
2023-05-12T07:19:09.156Z,16.70
2023-05-12T07:21:37.275Z,16.80
2023-05-12T07:24:06.137Z,16.90
2023-05-12T07:26:33.654Z,16.90
2023-05-12T07:29:01.354Z,16.80
2023-05-12T07:31:28.768Z,17.00
2023-05-12T07:33:56.087Z,16.90
2023-05-12T07:36:23.211Z,16.90
2023-05-12T07:38:50.212Z,17.00
2023-05-12T07:41:18.051Z,16.90
2023-05-12T07:43:45.669Z,17.00
2023-05-12T07:46:12.617Z,17.10
2023-05-12T07:48:40.457Z,17.10
2023-05-12T07:51:08.471Z,17.20
2023-05-12T07:53:35.845Z,17.20
2023-05-12T07:56:02.868Z,17.30
2023-05-12T07:58:29.920Z,17.40
2023-05-12T08:00:59.155Z,17.70
2023-05-12T08:03:26.588Z,17.60
2023-05-12T08:05:53.572Z,17.80
2023-05-12T08:08:20.490Z,17.80
2023-05-12T08:10:47.497Z,18.00
2023-05-12T08:13:14.436Z,18.20
2023-05-12T08:15:41.374Z,18.60
2023-05-12T08:18:08.416Z,18.70
2023-05-12T08:20:36.105Z,18.90
2023-05-12T08:23:03.001Z,19.00
2023-05-12T08:25:30.723Z,19.00
2023-05-12T08:27:59.351Z,19.10
2023-05-12T08:30:27.182Z,19.30
2023-05-12T08:32:56.650Z,19.50
2023-05-12T08:35:27.693Z,19.70
2023-05-12T08:37:54.841Z,19.90
2023-05-12T08:40:23.294Z,19.80
2023-05-12T08:42:50.516Z,20.00
2023-05-12T08:45:18.240Z,20.00
2023-05-12T08:47:46.582Z,20.00
2023-05-12T08:50:16.591Z,20.30
2023-05-12T08:52:43.991Z,20.70
2023-05-12T08:55:12.263Z,20.90
2023-05-12T08:57:45.603Z,20.70
2023-05-12T09:00:13.387Z,20.80
2023-05-12T09:02:52.171Z,20.80
2023-05-12T09:05:20.951Z,20.80
2023-05-12T09:07:49.738Z,20.90
2023-05-12T09:10:32.938Z,21.10
2023-05-12T09:13:24.769Z,21.40
2023-05-12T09:15:53.986Z,21.20
2023-05-12T09:18:21.048Z,20.90
2023-05-12T09:20:48.193Z,21.10
2023-05-12T09:23:16.000Z,21.20
2023-05-12T09:25:43.018Z,21.10
2023-05-12T09:28:10.006Z,21.10
2023-05-12T09:30:40.674Z,21.40
2023-05-12T09:33:09.616Z,21.50
2023-05-12T09:35:46.573Z,22.20
2023-05-12T09:38:14.400Z,21.70
2023-05-12T09:40:43.108Z,22.00
2023-05-12T09:43:12.426Z,22.20
2023-05-12T09:45:42.327Z,22.10
2023-05-12T09:48:13.862Z,22.40
2023-05-12T09:50:49.204Z,22.40
2023-05-12T09:53:17.894Z,22.60
2023-05-12T09:55:45.800Z,22.50
2023-05-12T09:58:16.151Z,22.90
2023-05-12T10:01:12.862Z,22.90
2023-05-12T10:03:31.967Z,22.70
2023-05-12T10:06:01.641Z,22.70
2023-05-12T10:08:32.600Z,22.60
2023-05-12T10:11:01.991Z,23.00
2023-05-12T10:13:29.567Z,23.30
2023-05-12T10:15:57.732Z,23.20
2023-05-12T10:18:25.817Z,23.20
2023-05-12T10:20:56.249Z,23.30
2023-05-12T10:23:24.875Z,23.40
2023-05-12T10:25:54.096Z,23.50
2023-05-12T10:28:21.052Z,23.20
2023-05-12T10:30:48.721Z,23.40
2023-05-12T10:33:15.819Z,23.60
2023-05-12T10:35:43.978Z,23.40
2023-05-12T10:38:12.133Z,23.40
2023-05-12T10:41:02.043Z,23.40
2023-05-12T10:43:37.473Z,23.10
2023-05-12T10:46:17.766Z,22.90
2023-05-12T10:48:58.749Z,22.80
2023-05-12T10:51:31.065Z,23.20
2023-05-12T10:54:01.118Z,23.20
2023-05-12T10:56:38.341Z,23.10
2023-05-12T10:59:20.512Z,22.90
2023-05-12T11:02:06.795Z,22.80
2023-05-12T11:04:59.305Z,22.60
2023-05-12T11:07:30.672Z,22.40
2023-05-12T11:10:01.491Z,22.80
2023-05-12T11:12:32.921Z,22.90
2023-05-12T11:15:01.564Z,22.90
2023-05-12T11:17:29.088Z,22.90
2023-05-12T11:19:56.853Z,22.80
2023-05-12T11:22:24.415Z,22.70
2023-05-12T11:24:52.856Z,22.90
2023-05-12T11:27:23.106Z,22.70
2023-05-12T11:30:04.407Z,23.00
2023-05-12T11:32:31.416Z,22.80
2023-05-12T11:35:09.896Z,22.60
2023-05-12T11:37:39.586Z,22.20
2023-05-12T11:40:19.364Z,22.70
2023-05-12T11:42:49.110Z,22.90
2023-05-12T11:45:26.997Z,23.00
2023-05-12T11:48:05.386Z,23.30
2023-05-12T11:50:32.403Z,22.80
2023-05-12T11:52:59.326Z,23.00
2023-05-12T11:55:26.324Z,23.00
2023-05-12T11:57:58.747Z,22.90
2023-05-12T12:00:34.118Z,23.20
2023-05-12T12:03:15.025Z,23.10
2023-05-12T12:05:45.350Z,22.90
2023-05-12T12:08:16.807Z,22.40
2023-05-12T12:10:45.472Z,23.00
2023-05-12T12:13:13.805Z,23.20
2023-05-12T12:15:40.813Z,23.20
2023-05-12T12:18:07.786Z,23.40
2023-05-12T12:20:35.032Z,23.50
2023-05-12T12:23:01.980Z,23.20
2023-05-12T12:25:29.332Z,23.40
2023-05-12T12:27:56.328Z,23.10
2023-05-12T12:30:23.506Z,23.00
2023-05-12T12:32:50.481Z,23.30
2023-05-12T12:35:17.880Z,23.40
2023-05-12T12:37:51.853Z,23.80
2023-05-12T12:40:20.274Z,23.60
2023-05-12T12:42:47.478Z,23.60
2023-05-12T12:45:14.488Z,23.50
2023-05-12T12:47:41.398Z,23.70
2023-05-12T12:50:10.023Z,23.40
2023-05-12T12:52:38.431Z,23.40
2023-05-12T12:55:06.863Z,23.60
2023-05-12T12:57:33.863Z,23.60
2023-05-12T13:00:01.390Z,23.70
2023-05-12T13:02:28.608Z,23.80
2023-05-12T13:04:55.643Z,23.40
2023-05-12T13:07:22.823Z,23.10
2023-05-12T13:09:49.723Z,23.40
2023-05-12T13:12:16.703Z,23.40
2023-05-12T13:14:43.611Z,23.20
2023-05-12T13:17:10.577Z,23.00
2023-05-12T13:19:38.161Z,23.30
2023-05-12T13:22:05.702Z,23.30
2023-05-12T13:24:33.007Z,23.30
2023-05-12T13:26:59.920Z,23.10
2023-05-12T13:29:26.856Z,23.30
2023-05-12T13:31:54.455Z,23.40
2023-05-12T13:34:21.424Z,23.40
2023-05-12T13:36:48.552Z,23.40
2023-05-12T13:39:16.849Z,22.90
2023-05-12T13:41:44.829Z,23.00
2023-05-12T13:44:11.858Z,23.10
2023-05-12T13:46:38.801Z,23.00
2023-05-12T13:49:05.751Z,23.00
2023-05-12T13:51:32.688Z,22.80
2023-05-12T13:53:59.679Z,22.90
2023-05-12T13:56:26.807Z,23.00
2023-05-12T13:58:53.831Z,23.00
2023-05-12T14:01:20.968Z,23.10
2023-05-12T14:03:48.090Z,23.00
2023-05-12T14:06:15.153Z,22.80
2023-05-12T14:08:42.054Z,22.90
2023-05-12T14:11:09.191Z,22.90
2023-05-12T14:13:36.286Z,22.90
2023-05-12T14:16:03.778Z,22.70
2023-05-12T14:18:30.824Z,22.70
2023-05-12T14:20:58.502Z,22.70
2023-05-12T14:23:25.516Z,22.70
2023-05-12T14:25:52.471Z,22.70
2023-05-12T14:28:19.471Z,22.30
2023-05-12T14:30:48.677Z,22.40
2023-05-12T14:33:15.817Z,22.40
2023-05-12T14:35:44.746Z,22.30
2023-05-12T14:38:15.340Z,22.30
2023-05-12T14:40:43.430Z,22.20
2023-05-12T14:43:10.440Z,22.20
2023-05-12T14:45:37.379Z,22.20
2023-05-12T14:48:04.748Z,22.20
2023-05-12T14:50:31.773Z,22.10
2023-05-12T14:52:58.939Z,22.10
2023-05-12T14:55:25.960Z,22.10
2023-05-12T14:57:52.895Z,22.00
2023-05-12T15:00:21.318Z,22.00
2023-05-12T15:02:48.721Z,22.10
2023-05-12T15:05:16.238Z,22.10
2023-05-12T15:07:43.229Z,22.20
2023-05-12T15:10:10.748Z,22.40
2023-05-12T15:12:37.666Z,22.40
2023-05-12T15:15:06.075Z,22.30
2023-05-12T15:17:33.106Z,22.00
2023-05-12T15:20:00.074Z,22.00
2023-05-12T15:22:31.294Z,21.90
2023-05-12T15:25:01.200Z,21.90
2023-05-12T15:27:28.235Z,21.90
2023-05-12T15:29:55.295Z,21.80
2023-05-12T15:32:22.340Z,21.60
2023-05-12T15:34:49.700Z,21.60
2023-05-12T15:37:16.722Z,21.60
2023-05-12T15:39:44.004Z,21.30
2023-05-12T15:42:12.610Z,21.30
2023-05-12T15:44:41.535Z,21.20
2023-05-12T15:47:08.505Z,21.20
2023-05-12T15:49:35.497Z,20.90
2023-05-12T15:52:02.582Z,21.10
2023-05-12T15:54:30.946Z,20.80
2023-05-12T15:56:57.897Z,20.60
2023-05-12T15:59:24.864Z,20.40
2023-05-12T16:01:51.781Z,20.40
2023-05-12T16:04:18.928Z,20.20
2023-05-12T16:06:46.185Z,20.10
2023-05-12T16:09:13.701Z,20.10
2023-05-12T16:11:41.983Z,20.00
2023-05-12T16:14:08.965Z,20.00
2023-05-12T16:16:36.179Z,20.00
2023-05-12T16:19:03.575Z,19.90
2023-05-12T16:21:30.543Z,19.80
2023-05-12T16:23:57.480Z,19.80
2023-05-12T16:26:24.774Z,19.60
2023-05-12T16:28:51.801Z,19.40
2023-05-12T16:31:19.830Z,19.40
2023-05-12T16:33:46.835Z,19.40
2023-05-12T16:36:15.112Z,19.30
2023-05-12T16:38:43.261Z,19.20
2023-05-12T16:41:10.480Z,19.10
2023-05-12T16:43:37.981Z,18.90
2023-05-12T16:46:05.376Z,18.80
2023-05-12T16:48:36.263Z,18.70
2023-05-12T16:51:07.842Z,18.70
2023-05-12T16:53:35.902Z,18.60
2023-05-12T16:56:03.028Z,18.50
2023-05-12T16:58:33.422Z,18.40
2023-05-12T17:01:01.704Z,18.20
2023-05-12T17:03:29.425Z,18.20
2023-05-12T17:05:56.593Z,18.10
2023-05-12T17:08:24.646Z,18.00
2023-05-12T17:10:51.733Z,17.90
2023-05-12T17:13:18.690Z,17.80
2023-05-12T17:15:45.868Z,17.80
2023-05-12T17:18:12.957Z,17.80
2023-05-12T17:20:40.765Z,17.80
2023-05-12T17:23:08.287Z,17.70
2023-05-12T17:25:36.722Z,17.70
2023-05-12T17:28:04.535Z,17.60
2023-05-12T17:30:31.988Z,17.60
2023-05-12T17:32:58.994Z,17.50
2023-05-12T17:35:26.212Z,17.50
2023-05-12T17:37:55.382Z,17.40
2023-05-12T17:40:23.069Z,17.40
2023-05-12T17:42:50.304Z,17.40
2023-05-12T17:45:17.803Z,17.30
2023-05-12T17:47:45.446Z,17.30
2023-05-12T17:50:14.870Z,17.30
2023-05-12T17:52:43.080Z,17.20
2023-05-12T17:55:10.387Z,17.10
2023-05-12T17:57:38.071Z,17.00
2023-05-12T18:00:09.970Z,17.10
2023-05-12T18:02:41.229Z,17.00
2023-05-12T18:05:09.942Z,16.90
2023-05-12T18:07:37.061Z,16.80
2023-05-12T18:10:08.090Z,16.80
2023-05-12T18:12:35.643Z,16.80
2023-05-12T18:15:03.525Z,16.80
2023-05-12T18:17:30.911Z,16.70
2023-05-12T18:19:58.093Z,16.70
2023-05-12T18:22:25.052Z,16.60
2023-05-12T18:24:52.091Z,16.60
2023-05-12T18:27:19.144Z,16.60
2023-05-12T18:29:46.244Z,16.50
2023-05-12T18:32:13.170Z,16.50
2023-05-12T18:34:44.005Z,16.30
2023-05-12T18:37:14.391Z,16.30
2023-05-12T18:39:42.933Z,16.30
2023-05-12T18:42:11.194Z,16.30
2023-05-12T18:44:40.704Z,16.10
2023-05-12T18:47:08.713Z,16.10
2023-05-12T18:49:36.250Z,16.00
2023-05-12T18:52:03.836Z,15.90
2023-05-12T18:54:31.106Z,15.80
2023-05-12T18:56:58.006Z,15.80
2023-05-12T18:59:25.298Z,15.70
2023-05-12T19:01:52.282Z,15.70
2023-05-12T19:04:19.944Z,15.50
2023-05-12T19:06:46.994Z,15.40
2023-05-12T19:09:14.091Z,15.30
2023-05-12T19:11:41.087Z,15.10
2023-05-12T19:14:08.198Z,15.00
2023-05-12T19:16:36.386Z,14.90
2023-05-12T19:19:03.462Z,14.70
2023-05-12T19:21:32.377Z,14.60
2023-05-12T19:23:59.391Z,14.60
2023-05-12T19:26:26.955Z,14.70
2023-05-12T19:28:53.882Z,14.50
2023-05-12T19:31:21.047Z,14.40
2023-05-12T19:33:48.010Z,14.30
2023-05-12T19:36:15.100Z,14.30
2023-05-12T19:38:43.618Z,14.10
2023-05-12T19:41:11.289Z,14.00
2023-05-12T19:43:38.220Z,14.00
2023-05-12T19:46:05.202Z,14.00
2023-05-12T19:48:32.250Z,14.00
2023-05-12T19:50:59.274Z,13.90
2023-05-12T19:53:26.806Z,14.00
2023-05-12T19:55:54.032Z,13.80
2023-05-12T19:58:21.008Z,13.70
2023-05-12T20:00:48.081Z,13.70
2023-05-12T20:03:15.100Z,13.70
2023-05-12T20:05:42.305Z,13.70
2023-05-12T20:08:09.306Z,13.70
2023-05-12T20:10:36.313Z,13.60
2023-05-12T20:13:03.850Z,13.60
2023-05-12T20:15:32.142Z,13.60
2023-05-12T20:17:59.082Z,13.60
2023-05-12T20:20:26.087Z,13.60
2023-05-12T20:22:53.026Z,13.50
2023-05-12T20:25:20.187Z,13.30
2023-05-12T20:27:48.127Z,13.30
2023-05-12T20:30:15.142Z,13.30
2023-05-12T20:32:43.671Z,13.10
2023-05-12T20:35:10.771Z,13.00
2023-05-12T20:37:38.870Z,12.90
2023-05-12T20:40:07.182Z,12.90
2023-05-12T20:42:34.246Z,12.90
2023-05-12T20:45:01.535Z,12.90
2023-05-12T20:47:30.470Z,12.80
2023-05-12T20:49:57.889Z,12.80
2023-05-12T20:52:28.850Z,12.80
2023-05-12T20:54:57.991Z,12.70
2023-05-12T20:57:26.133Z,12.70
2023-05-12T20:59:53.074Z,12.70
2023-05-12T21:02:20.177Z,12.70
2023-05-12T21:04:47.081Z,12.80
2023-05-12T21:07:14.085Z,12.80
2023-05-12T21:09:41.070Z,12.80
2023-05-12T21:12:08.446Z,12.70
2023-05-12T21:14:42.848Z,12.60
2023-05-12T21:17:10.610Z,12.50
2023-05-12T21:19:38.804Z,12.50
2023-05-12T21:22:07.192Z,12.40
2023-05-12T21:24:34.285Z,12.30
2023-05-12T21:27:05.489Z,12.20
2023-05-12T21:29:33.432Z,12.20
2023-05-12T21:32:01.033Z,11.90
2023-05-12T21:34:28.482Z,11.90
2023-05-12T21:36:55.454Z,12.00
2023-05-12T21:39:22.947Z,11.90
2023-05-12T21:41:49.936Z,11.80
2023-05-12T21:44:17.347Z,11.80
2023-05-12T21:46:44.489Z,11.80
2023-05-12T21:49:11.541Z,11.80
2023-05-12T21:51:38.520Z,11.80
2023-05-12T21:54:05.736Z,11.90
2023-05-12T21:56:32.791Z,11.90
2023-05-12T21:58:59.873Z,12.00
2023-05-12T22:01:26.903Z,12.00
2023-05-12T22:03:58.922Z,11.90
2023-05-12T22:06:26.179Z,11.90
2023-05-12T22:08:54.180Z,11.70
2023-05-12T22:11:21.727Z,11.70
2023-05-12T22:13:49.266Z,11.70
2023-05-12T22:16:17.025Z,11.60
2023-05-12T22:18:45.762Z,11.50
2023-05-12T22:21:13.107Z,11.50
2023-05-12T22:23:41.882Z,11.40
2023-05-12T22:26:09.378Z,11.40
2023-05-12T22:28:36.463Z,11.40
2023-05-12T22:31:03.606Z,11.30
2023-05-12T22:33:31.575Z,11.20
2023-05-12T22:36:00.119Z,11.20
2023-05-12T22:38:27.756Z,11.30
2023-05-12T22:40:54.773Z,11.30
2023-05-12T22:43:22.747Z,11.30
2023-05-12T22:45:53.108Z,11.30
2023-05-12T22:48:20.342Z,11.30
2023-05-12T22:50:47.754Z,11.20
2023-05-12T22:53:14.974Z,11.00
2023-05-12T22:55:41.884Z,11.00
2023-05-12T22:58:10.320Z,11.00
2023-05-12T23:00:37.625Z,11.00
2023-05-12T23:03:04.911Z,10.90
2023-05-12T23:05:31.843Z,10.90
2023-05-12T23:07:58.823Z,10.90
2023-05-12T23:10:25.858Z,10.80
2023-05-12T23:12:52.835Z,10.80
2023-05-12T23:15:19.809Z,10.70
2023-05-12T23:17:46.822Z,10.60
2023-05-12T23:20:13.925Z,10.60
2023-05-12T23:22:40.908Z,10.60
2023-05-12T23:25:08.467Z,10.50
2023-05-12T23:27:36.838Z,10.50
2023-05-12T23:30:06.077Z,10.50
2023-05-12T23:32:33.132Z,10.40
2023-05-12T23:35:00.187Z,10.40
2023-05-12T23:37:27.419Z,10.40
2023-05-12T23:39:54.479Z,10.30
2023-05-12T23:42:21.619Z,10.30
2023-05-12T23:44:48.572Z,10.30
2023-05-12T23:47:15.581Z,10.20
2023-05-12T23:49:42.581Z,10.20
2023-05-12T23:52:09.507Z,10.20
2023-05-12T23:54:36.400Z,10.20
2023-05-12T23:57:03.733Z,10.10
2023-05-12T23:59:30.898Z,10.10
